createdAt,value
2022-10-13T00:00:51.992Z,17.90
2022-10-13T00:02:53.844Z,17.23
2022-10-13T00:04:55.792Z,15.57
2022-10-13T00:06:57.463Z,18.38
2022-10-13T00:08:59.485Z,17.50
2022-10-13T00:11:01.424Z,19.92
2022-10-13T00:13:03.106Z,21.25
2022-10-13T00:15:07.211Z,17.50
2022-10-13T00:17:09.173Z,17.40
2022-10-13T00:19:14.980Z,15.68
2022-10-13T00:21:20.233Z,20.58
2022-10-13T00:23:22.125Z,15.55
2022-10-13T00:25:23.725Z,18.40
2022-10-13T00:27:25.368Z,17.52
2022-10-13T00:29:27.039Z,15.52
2022-10-13T00:31:30.817Z,20.40
2022-10-13T00:33:32.486Z,15.95
2022-10-13T00:35:34.531Z,15.73
2022-10-13T00:37:36.211Z,19.75
2022-10-13T00:39:37.832Z,19.45
2022-10-13T00:41:39.608Z,15.43
2022-10-13T00:43:52.305Z,19.55
2022-10-13T00:45:54.425Z,14.80
2022-10-13T00:48:01.180Z,13.88
2022-10-13T00:50:04.825Z,15.05
2022-10-13T00:52:06.625Z,13.85
2022-10-13T00:54:10.390Z,14.65
2022-10-13T00:58:19.675Z,15.18
2022-10-13T01:00:25.129Z,16.58
2022-10-13T01:02:30.877Z,16.67
2022-10-13T01:04:35.059Z,16.42
2022-10-13T01:06:36.772Z,14.75
2022-10-13T01:08:38.541Z,16.67
2022-10-13T01:11:00.765Z,15.65
2022-10-13T01:13:35.145Z,16.08
2022-10-13T01:15:38.724Z,14.73
2022-10-13T01:17:58.572Z,14.40
2022-10-13T01:20:18.467Z,12.07
2022-10-13T01:22:44.745Z,16.55
2022-10-13T01:25:10.712Z,14.85
2022-10-13T01:27:18.733Z,16.27
2022-10-13T01:29:51.311Z,17.23
2022-10-13T01:32:16.249Z,15.13
2022-10-13T01:34:29.746Z,17.00
2022-10-13T01:36:35.678Z,18.65
2022-10-13T01:38:45.704Z,15.00
2022-10-13T01:41:05.800Z,14.65
2022-10-13T01:43:25.641Z,17.40
2022-10-13T01:45:32.273Z,15.45
2022-10-13T01:47:34.521Z,18.63
2022-10-13T01:49:36.351Z,16.10
2022-10-13T01:51:38.943Z,18.20
2022-10-13T01:53:41.466Z,16.02
2022-10-13T01:55:57.639Z,14.95
2022-10-13T01:57:59.315Z,18.83
2022-10-13T02:00:18.914Z,15.52
2022-10-13T02:02:28.964Z,16.33
2022-10-13T02:04:54.056Z,16.63
2022-10-13T02:07:00.409Z,20.23
2022-10-13T02:09:06.493Z,15.35
2022-10-13T02:11:16.791Z,16.95
2022-10-13T02:13:22.256Z,18.38
2022-10-13T02:15:28.848Z,15.90
2022-10-13T02:17:30.942Z,17.20
2022-10-13T02:19:37.457Z,15.95
2022-10-13T02:21:39.493Z,16.23
2022-10-13T02:23:43.086Z,15.35
2022-10-13T02:25:45.269Z,18.08
2022-10-13T02:27:46.879Z,16.63
2022-10-13T02:29:50.810Z,17.08
2022-10-13T02:31:54.984Z,15.68
2022-10-13T02:33:56.546Z,14.50
2022-10-13T02:35:58.190Z,15.85
2022-10-13T02:38:00.378Z,15.65
2022-10-13T02:40:01.966Z,16.45
2022-10-13T02:42:03.880Z,17.25
2022-10-13T02:44:06.495Z,19.80
2022-10-13T02:46:08.094Z,18.60
2022-10-13T02:48:09.778Z,20.08
2022-10-13T02:50:11.548Z,17.50
2022-10-13T02:52:13.196Z,18.98
2022-10-13T02:54:14.815Z,19.63
2022-10-13T02:56:16.405Z,20.77
2022-10-13T02:58:18.288Z,17.55
2022-10-13T03:00:20.784Z,15.40
2022-10-13T03:02:23.088Z,15.85
2022-10-13T03:04:24.918Z,18.25
2022-10-13T03:06:26.636Z,17.30
2022-10-13T03:08:28.404Z,17.40
2022-10-13T03:10:31.996Z,14.90
2022-10-13T03:12:33.970Z,17.27
2022-10-13T03:14:35.657Z,16.88
2022-10-13T03:16:37.329Z,18.13
2022-10-13T03:18:39.000Z,15.45
2022-10-13T03:20:40.774Z,19.25
2022-10-13T03:22:44.911Z,17.50
2022-10-13T03:24:50.374Z,17.50
2022-10-13T03:26:52.241Z,19.35
2022-10-13T03:28:53.898Z,18.88
2022-10-13T03:31:07.190Z,19.80
2022-10-13T03:33:08.776Z,23.10
2022-10-13T03:35:10.619Z,23.23
2022-10-13T03:37:12.204Z,20.15
2022-10-13T03:39:14.194Z,24.65
2022-10-13T03:41:17.995Z,18.70
2022-10-13T03:45:21.239Z,24.80
2022-10-13T03:47:23.120Z,20.55
2022-10-13T03:49:24.730Z,25.00
2022-10-13T03:51:26.501Z,25.15
2022-10-13T03:53:28.148Z,23.00
2022-10-13T03:55:29.781Z,26.77
2022-10-13T03:57:31.647Z,27.95
2022-10-13T03:59:36.768Z,26.52
2022-10-13T04:01:39.217Z,29.92
2022-10-13T04:03:41.032Z,34.95
2022-10-13T04:05:43.247Z,32.70
2022-10-13T04:07:44.844Z,26.50
2022-10-13T04:09:46.654Z,25.20
2022-10-13T04:11:51.359Z,29.63
2022-10-13T04:13:53.304Z,30.15
2022-10-13T04:15:55.281Z,24.33
2022-10-13T04:17:56.961Z,27.33
2022-10-13T04:19:58.543Z,36.03
2022-10-13T04:22:00.137Z,28.20
2022-10-13T04:24:02.285Z,29.10
2022-10-13T04:26:05.392Z,35.42
2022-10-13T04:28:07.561Z,42.40
2022-10-13T04:30:12.465Z,31.98
2022-10-13T04:32:15.123Z,32.08
2022-10-13T04:34:17.024Z,46.28
2022-10-13T04:36:18.978Z,35.08
2022-10-13T04:38:20.565Z,39.20
2022-10-13T04:40:22.191Z,43.95
2022-10-13T04:42:23.981Z,37.95
2022-10-13T04:44:25.619Z,38.63
2022-10-13T04:46:27.985Z,43.75
2022-10-13T04:48:29.657Z,45.10
2022-10-13T04:50:31.280Z,45.70
2022-10-13T04:52:34.729Z,50.88
2022-10-13T04:54:36.625Z,52.05
2022-10-13T04:56:38.231Z,49.47
2022-10-13T04:58:42.247Z,48.38
2022-10-13T05:00:46.716Z,50.90
2022-10-13T05:02:48.434Z,55.28
2022-10-13T05:04:50.020Z,51.50
2022-10-13T05:07:16.613Z,43.88
2022-10-13T05:09:16.482Z,48.30
2022-10-13T05:11:20.566Z,45.38
2022-10-13T05:13:22.220Z,54.25
2022-10-13T05:15:24.080Z,45.00
2022-10-13T05:17:25.665Z,48.70
2022-10-13T05:19:27.334Z,44.30
2022-10-13T05:21:29.894Z,41.33
2022-10-13T05:23:31.489Z,45.88
2022-10-13T05:25:35.368Z,46.25
2022-10-13T05:29:39.017Z,45.40
2022-10-13T05:31:41.206Z,48.10
2022-10-13T05:33:43.092Z,39.55
2022-10-13T05:35:44.652Z,41.03
2022-10-13T05:37:46.404Z,46.35
2022-10-13T05:39:48.917Z,38.35
2022-10-13T05:41:50.648Z,40.70
2022-10-13T05:43:57.504Z,40.17
2022-10-13T05:46:00.055Z,36.17
2022-10-13T05:48:01.736Z,48.47
2022-10-13T05:50:03.633Z,40.75
2022-10-13T05:52:08.486Z,44.50
2022-10-13T05:54:30.215Z,41.45
2022-10-13T05:56:36.383Z,41.47
2022-10-13T05:58:41.953Z,37.22
2022-10-13T06:00:44.275Z,47.85
2022-10-13T06:03:10.589Z,38.70
2022-10-13T06:05:15.324Z,41.53
2022-10-13T06:07:17.379Z,40.90
2022-10-13T06:09:19.484Z,44.17
2022-10-13T06:11:21.130Z,43.15
2022-10-13T06:13:22.781Z,43.15
2022-10-13T06:15:27.958Z,36.10
2022-10-13T06:17:29.854Z,38.20
2022-10-13T06:19:31.642Z,40.40
2022-10-13T06:21:35.385Z,40.72
2022-10-13T06:23:37.012Z,39.50
2022-10-13T06:25:38.830Z,32.70
2022-10-13T06:27:40.715Z,35.95
2022-10-13T06:29:42.294Z,35.72
2022-10-13T06:31:43.906Z,35.13
2022-10-13T06:33:45.564Z,38.50
2022-10-13T06:35:47.148Z,39.17
2022-10-13T06:37:48.770Z,41.08
2022-10-13T06:39:50.567Z,36.53
2022-10-13T06:41:52.756Z,39.95
2022-10-13T06:43:54.406Z,45.35
2022-10-13T06:46:00.488Z,40.33
2022-10-13T06:48:02.085Z,38.75
2022-10-13T06:50:03.917Z,48.53
2022-10-13T06:52:05.718Z,39.15
2022-10-13T06:54:07.368Z,37.45
2022-10-13T06:56:09.352Z,32.42
2022-10-13T06:58:11.302Z,36.05
2022-10-13T07:00:13.105Z,42.38
2022-10-13T07:02:14.701Z,44.78
2022-10-13T07:04:16.363Z,34.53
2022-10-13T07:06:18.476Z,44.42
2022-10-13T07:08:20.845Z,35.97
2022-10-13T07:10:22.626Z,40.42
2022-10-13T07:12:24.375Z,39.42
2022-10-13T07:14:26.054Z,39.30
2022-10-13T07:16:27.962Z,38.65
2022-10-13T07:18:29.638Z,40.72
2022-10-13T07:20:31.299Z,42.67
2022-10-13T07:22:33.140Z,41.45
2022-10-13T07:24:34.724Z,47.03
2022-10-13T07:26:36.732Z,40.45
2022-10-13T07:28:39.193Z,44.38
2022-10-13T07:30:41.004Z,43.58
2022-10-13T07:32:42.735Z,46.40
2022-10-13T07:34:44.418Z,44.13
2022-10-13T07:36:46.133Z,61.22
2022-10-13T07:38:47.719Z,47.45
2022-10-13T07:40:49.396Z,49.78
2022-10-13T07:42:51.030Z,42.95
2022-10-13T07:44:52.661Z,44.25
2022-10-13T07:46:54.317Z,38.83
2022-10-13T07:48:56.197Z,34.03
2022-10-13T07:50:58.327Z,38.08
2022-10-13T07:53:00.093Z,36.35
2022-10-13T07:55:01.753Z,40.13
2022-10-13T07:57:03.607Z,48.00
2022-10-13T07:59:05.433Z,50.50
2022-10-13T08:01:08.081Z,44.78
2022-10-13T08:03:09.757Z,44.85
2022-10-13T08:05:11.359Z,44.72
2022-10-13T08:07:12.953Z,46.65
2022-10-13T08:09:14.684Z,44.85
2022-10-13T08:11:17.659Z,49.63
2022-10-13T08:13:19.454Z,46.78
2022-10-13T08:15:21.139Z,46.90
2022-10-13T08:17:22.949Z,41.70
2022-10-13T08:19:26.588Z,68.97
2022-10-13T08:23:51.316Z,42.63
2022-10-13T08:25:53.147Z,40.75
2022-10-13T08:28:00.260Z,42.80
2022-10-13T08:30:02.299Z,38.63
2022-10-13T08:32:04.107Z,39.55
2022-10-13T08:34:05.740Z,38.08
2022-10-13T08:36:08.377Z,35.67
2022-10-13T08:38:10.161Z,38.30
2022-10-13T08:40:17.552Z,41.50
2022-10-13T08:42:22.247Z,35.72
2022-10-13T08:46:56.578Z,38.47
2022-10-13T08:49:00.265Z,37.35
2022-10-13T08:51:04.080Z,38.53
2022-10-13T08:55:18.834Z,42.00
2022-10-13T08:57:20.866Z,36.38
2022-10-13T08:59:22.790Z,34.88
2022-10-13T09:01:28.899Z,46.97
2022-10-13T09:03:30.602Z,42.28
2022-10-13T09:05:39.380Z,41.65
2022-10-13T09:07:41.485Z,36.75
2022-10-13T09:09:43.744Z,39.58
2022-10-13T09:11:47.519Z,36.70
2022-10-13T09:15:51.058Z,39.97
2022-10-13T09:18:09.597Z,39.78
2022-10-13T09:20:23.549Z,36.88
2022-10-13T09:22:35.901Z,38.20
2022-10-13T09:24:37.492Z,38.53
2022-10-13T09:26:39.600Z,35.92
2022-10-13T09:28:42.804Z,39.65
2022-10-13T09:30:48.923Z,38.58
2022-10-13T09:32:50.597Z,35.88
2022-10-13T09:34:53.019Z,35.22
2022-10-13T09:36:58.190Z,36.83
2022-10-13T09:39:17.143Z,33.85
2022-10-13T09:41:22.364Z,35.25
2022-10-13T09:43:33.343Z,37.33
2022-10-13T09:45:35.006Z,39.50
2022-10-13T09:47:36.866Z,32.28
2022-10-13T09:49:44.182Z,33.35
2022-10-13T09:51:45.980Z,28.08
2022-10-13T09:53:47.858Z,29.02
2022-10-13T09:55:49.959Z,29.35
2022-10-13T09:57:52.812Z,34.63
2022-10-13T10:00:04.634Z,30.45
2022-10-13T10:02:31.046Z,29.10
2022-10-13T10:04:36.594Z,29.83
2022-10-13T10:06:39.210Z,28.20
2022-10-13T10:09:02.865Z,27.55
2022-10-13T10:13:14.783Z,28.60
2022-10-13T10:15:25.265Z,30.05
2022-10-13T10:17:38.056Z,29.52
2022-10-13T10:19:46.957Z,30.45
2022-10-13T10:22:04.086Z,33.08
2022-10-13T10:24:15.637Z,27.75
2022-10-13T10:26:32.937Z,26.35
2022-10-13T10:28:49.832Z,26.88
2022-10-13T10:31:00.322Z,31.20
2022-10-13T10:33:21.306Z,27.27
2022-10-13T10:35:44.562Z,26.88
2022-10-13T10:38:07.252Z,29.85
2022-10-13T10:40:30.943Z,29.08
2022-10-13T10:42:53.911Z,28.13
2022-10-13T10:44:56.240Z,29.35
2022-10-13T10:47:02.974Z,24.45
2022-10-13T10:49:20.378Z,26.45
2022-10-13T10:51:31.450Z,29.50
2022-10-13T10:53:45.650Z,33.65
2022-10-13T10:55:57.286Z,26.60
2022-10-13T10:58:05.281Z,23.48
2022-10-13T11:00:14.430Z,24.73
2022-10-13T11:02:34.191Z,20.67
2022-10-13T11:04:43.073Z,23.50
2022-10-13T11:06:44.754Z,22.25
2022-10-13T11:09:05.348Z,23.38
2022-10-13T11:11:36.437Z,23.17
2022-10-13T11:14:07.305Z,22.75
2022-10-13T11:16:38.390Z,22.75
2022-10-13T11:19:06.652Z,22.05
2022-10-13T11:21:08.366Z,23.92
2022-10-13T11:23:12.837Z,27.17
2022-10-13T11:25:40.231Z,21.08
2022-10-13T11:27:42.868Z,26.35
2022-10-13T11:29:44.633Z,26.27
2022-10-13T11:31:54.610Z,27.65
2022-10-13T11:34:01.669Z,24.30
2022-10-13T11:36:31.448Z,25.60
2022-10-13T11:38:36.409Z,20.80
2022-10-13T11:41:02.524Z,27.77
2022-10-13T11:43:13.053Z,24.52
2022-10-13T11:45:25.686Z,25.42
2022-10-13T11:47:42.569Z,24.73
2022-10-13T11:50:23.024Z,23.80
2022-10-13T11:52:48.006Z,21.00
2022-10-13T11:54:57.664Z,22.15
2022-10-13T11:56:59.235Z,22.08
2022-10-13T11:59:01.064Z,20.02
2022-10-13T12:01:11.185Z,17.67
2022-10-13T12:03:21.496Z,23.73
2022-10-13T12:05:26.553Z,16.25
2022-10-13T12:07:32.914Z,20.35
2022-10-13T12:09:36.916Z,20.67
2022-10-13T12:11:39.093Z,19.77
2022-10-13T12:13:46.418Z,19.80
2022-10-13T12:15:48.103Z,14.52
2022-10-13T12:17:49.821Z,17.00
2022-10-13T12:19:54.833Z,16.27
2022-10-13T12:22:00.040Z,16.42
2022-10-13T12:24:13.602Z,18.42
2022-10-13T12:26:20.438Z,17.95
2022-10-13T12:28:22.519Z,17.13
2022-10-13T12:30:28.071Z,16.88
2022-10-13T12:32:31.684Z,15.82
2022-10-13T12:36:36.797Z,16.92
2022-10-13T12:38:38.965Z,18.42
2022-10-13T12:40:40.874Z,18.45
2022-10-13T12:42:42.939Z,17.70
2022-10-13T12:44:44.940Z,21.10
2022-10-13T12:46:56.315Z,15.48
2022-10-13T12:49:05.327Z,16.08
2022-10-13T12:51:17.216Z,18.02
2022-10-13T12:53:29.029Z,18.48
2022-10-13T12:55:31.471Z,14.57
2022-10-13T12:57:37.534Z,17.35
2022-10-13T12:59:41.999Z,27.48
2022-10-13T13:01:44.127Z,18.10
2022-10-13T13:03:45.751Z,14.40
2022-10-13T13:05:52.326Z,16.73
2022-10-13T13:07:55.865Z,13.40
2022-10-13T13:10:13.876Z,9.80
2022-10-13T13:12:23.514Z,12.15
2022-10-13T13:14:38.548Z,13.07
2022-10-13T13:16:40.169Z,11.13
2022-10-13T13:18:43.941Z,13.80
2022-10-13T13:20:45.545Z,17.60
2022-10-13T13:22:47.417Z,12.35
2022-10-13T13:24:52.198Z,11.25
2022-10-13T13:26:53.796Z,15.55
2022-10-13T13:28:56.315Z,13.73
2022-10-13T13:30:58.910Z,15.00
2022-10-13T13:33:00.541Z,16.42
2022-10-13T13:35:02.168Z,15.27
2022-10-13T13:37:04.051Z,18.23
2022-10-13T13:39:06.780Z,20.55
2022-10-13T13:41:10.654Z,20.40
2022-10-13T13:43:12.486Z,14.77
2022-10-13T13:45:15.246Z,17.67
2022-10-13T13:47:22.423Z,15.87
2022-10-13T13:49:24.385Z,12.02
2022-10-13T13:51:25.997Z,11.32
2022-10-13T13:53:27.765Z,13.05
2022-10-13T13:55:30.218Z,15.00
2022-10-13T13:57:31.782Z,16.58
2022-10-13T13:59:33.603Z,17.58
2022-10-13T14:01:35.373Z,16.38
2022-10-13T14:03:37.054Z,15.15
2022-10-13T14:05:40.079Z,15.50
2022-10-13T14:07:42.243Z,27.63
2022-10-13T14:09:43.789Z,15.27
2022-10-13T14:11:45.434Z,16.10
2022-10-13T14:13:47.265Z,14.77
2022-10-13T14:15:59.813Z,15.52
2022-10-13T14:18:01.470Z,14.23
2022-10-13T14:20:03.229Z,14.98
2022-10-13T14:22:09.332Z,16.88
2022-10-13T14:24:11.245Z,11.48
2022-10-13T14:26:13.858Z,15.50
2022-10-13T14:28:18.244Z,21.92
2022-10-13T14:30:20.305Z,17.27
2022-10-13T14:32:22.595Z,15.38
2022-10-13T14:34:24.714Z,9.90
2022-10-13T14:36:26.321Z,18.73
2022-10-13T14:38:28.336Z,35.83
2022-10-13T14:40:29.944Z,18.65
2022-10-13T14:42:31.585Z,15.63
2022-10-13T14:44:33.161Z,13.00
2022-10-13T14:46:34.891Z,16.83
2022-10-13T14:48:37.471Z,23.90
2022-10-13T14:50:39.050Z,13.27
2022-10-13T14:52:40.729Z,16.05
2022-10-13T14:54:44.861Z,16.88
2022-10-13T14:56:46.795Z,14.85
2022-10-13T14:58:50.043Z,16.10
2022-10-13T15:00:53.581Z,11.43
2022-10-13T15:02:55.193Z,11.35
2022-10-13T15:04:57.951Z,14.15
2022-10-13T15:06:59.634Z,17.80
2022-10-13T15:09:01.426Z,13.40
2022-10-13T15:11:04.197Z,15.35
2022-10-13T15:13:05.775Z,11.43
2022-10-13T15:15:07.772Z,13.93
2022-10-13T15:17:09.582Z,9.65
2022-10-13T15:19:11.413Z,13.55
2022-10-13T15:21:13.142Z,10.57
2022-10-13T15:23:15.929Z,14.35
2022-10-13T15:25:17.636Z,12.53
2022-10-13T15:27:19.230Z,11.25
2022-10-13T15:29:21.340Z,9.15
2022-10-13T15:31:23.621Z,12.00
2022-10-13T15:33:25.310Z,11.90
2022-10-13T15:35:31.329Z,14.73
2022-10-13T15:37:32.921Z,12.07
2022-10-13T15:39:34.974Z,10.98
2022-10-13T15:41:36.709Z,12.13
2022-10-13T15:43:39.054Z,12.30
2022-10-13T15:45:40.917Z,16.42
2022-10-13T15:47:42.587Z,12.35
2022-10-13T15:49:44.194Z,11.77
2022-10-13T15:51:46.307Z,13.82
2022-10-13T15:53:48.457Z,12.25
2022-10-13T15:55:50.177Z,10.05
2022-10-13T15:57:51.918Z,10.15
2022-10-13T15:59:53.556Z,11.05
2022-10-13T16:01:55.136Z,11.25
2022-10-13T16:03:56.919Z,13.60
2022-10-13T16:05:58.698Z,14.02
2022-10-13T16:08:00.253Z,14.48
2022-10-13T16:10:02.100Z,11.60
2022-10-13T16:12:03.790Z,12.52
2022-10-13T16:14:05.408Z,12.27
2022-10-13T16:16:07.928Z,7.68
2022-10-13T16:18:09.568Z,15.07
2022-10-13T16:20:11.761Z,10.98
2022-10-13T16:22:13.670Z,10.27
2022-10-13T16:24:15.342Z,13.43
2022-10-13T16:26:17.812Z,12.50
2022-10-13T16:28:19.568Z,21.38
2022-10-13T16:30:21.272Z,10.57
2022-10-13T16:32:23.124Z,9.00
2022-10-13T16:34:24.971Z,13.77
2022-10-13T16:36:26.615Z,7.88
2022-10-13T16:38:28.446Z,12.30
2022-10-13T16:40:30.759Z,13.30
2022-10-13T16:42:32.584Z,12.13
2022-10-13T16:44:34.249Z,10.55
2022-10-13T16:46:36.190Z,9.35
2022-10-13T16:48:37.894Z,12.40
2022-10-13T16:50:39.484Z,11.38
2022-10-13T16:52:41.048Z,18.70
2022-10-13T16:54:42.808Z,12.02
2022-10-13T16:56:44.513Z,16.20
2022-10-13T16:58:46.143Z,17.80
2022-10-13T17:00:48.042Z,15.38
2022-10-13T17:02:49.696Z,18.02
2022-10-13T17:04:51.346Z,13.85
2022-10-13T17:06:53.023Z,21.30
2022-10-13T17:08:58.707Z,20.33
2022-10-13T17:11:00.826Z,20.38
2022-10-13T17:13:02.473Z,15.18
2022-10-13T17:15:04.558Z,12.93
2022-10-13T17:17:06.145Z,10.90
2022-10-13T17:19:08.127Z,39.35
2022-10-13T17:21:13.584Z,42.53
2022-10-13T17:23:17.003Z,14.00
2022-10-13T17:25:18.659Z,13.75
2022-10-13T17:27:20.566Z,15.05
2022-10-13T17:29:22.367Z,12.73
2022-10-13T17:31:24.521Z,12.82
2022-10-13T17:33:27.664Z,17.88
2022-10-13T17:35:31.315Z,13.77
2022-10-13T17:39:34.412Z,10.52
2022-10-13T17:41:36.289Z,11.43
2022-10-13T17:43:39.242Z,13.30
2022-10-13T17:45:40.926Z,11.07
2022-10-13T17:47:49.619Z,11.73
2022-10-13T17:49:51.283Z,15.65
2022-10-13T17:51:54.317Z,14.10
2022-10-13T17:53:58.726Z,10.30
2022-10-13T17:56:07.932Z,12.13
2022-10-13T17:58:09.792Z,17.33
2022-10-13T18:00:12.171Z,11.93
2022-10-13T18:02:13.881Z,17.13
2022-10-13T18:04:17.906Z,12.98
2022-10-13T18:06:20.119Z,11.32
2022-10-13T18:08:21.704Z,13.85
2022-10-13T18:10:23.344Z,10.35
2022-10-13T18:12:25.130Z,12.45
2022-10-13T18:14:26.792Z,11.50
2022-10-13T18:16:28.472Z,21.70
2022-10-13T18:18:30.180Z,20.65
2022-10-13T18:20:32.359Z,13.63
2022-10-13T18:22:34.312Z,14.68
2022-10-13T18:24:35.956Z,11.38
2022-10-13T18:26:37.863Z,16.27
2022-10-13T18:28:40.543Z,16.42
2022-10-13T18:30:42.400Z,13.15
2022-10-13T18:32:44.046Z,13.00
2022-10-13T18:34:45.645Z,12.80
2022-10-13T18:36:50.541Z,16.17
2022-10-13T18:38:56.785Z,12.57
2022-10-13T18:40:59.514Z,12.15
2022-10-13T18:43:01.218Z,13.07
2022-10-13T18:45:03.099Z,14.55
2022-10-13T18:47:04.881Z,15.20
2022-10-13T18:49:08.276Z,12.27
2022-10-13T18:51:12.321Z,11.65
2022-10-13T18:53:14.165Z,12.95
2022-10-13T18:55:15.859Z,11.20
2022-10-13T18:57:17.435Z,12.63
2022-10-13T18:59:19.137Z,12.30
2022-10-13T19:01:23.105Z,12.48
2022-10-13T19:03:24.759Z,14.02
2022-10-13T19:05:26.434Z,14.32
2022-10-13T19:07:28.114Z,12.93
2022-10-13T19:09:30.289Z,11.30
2022-10-13T19:11:32.574Z,15.05
2022-10-13T19:13:34.289Z,12.50
2022-10-13T19:15:35.867Z,11.77
2022-10-13T19:17:37.628Z,10.43
2022-10-13T19:19:40.817Z,12.05
2022-10-13T19:21:42.603Z,11.35
2022-10-13T19:23:44.302Z,9.82
2022-10-13T19:25:45.889Z,11.43
2022-10-13T19:27:47.527Z,10.15
2022-10-13T19:29:52.308Z,14.07
2022-10-13T19:31:53.948Z,10.15
2022-10-13T19:33:55.933Z,11.70
2022-10-13T19:35:57.754Z,11.00
2022-10-13T19:37:59.388Z,14.07
2022-10-13T19:40:00.953Z,15.75
2022-10-13T19:42:02.802Z,11.00
2022-10-13T19:44:04.535Z,10.05
2022-10-13T19:46:07.176Z,9.60
2022-10-13T19:48:08.885Z,10.07
2022-10-13T19:50:10.805Z,11.50
2022-10-13T19:52:12.362Z,11.27
2022-10-13T19:54:14.696Z,11.10
2022-10-13T19:56:27.881Z,12.45
2022-10-13T19:58:30.253Z,10.60
2022-10-13T20:00:32.022Z,10.20
2022-10-13T20:02:34.154Z,9.90
2022-10-13T20:04:35.826Z,11.60
2022-10-13T20:06:37.843Z,14.45
2022-10-13T20:08:39.697Z,10.77
2022-10-13T20:10:42.929Z,8.55
2022-10-13T20:12:44.556Z,10.25
2022-10-13T20:14:46.360Z,14.18
2022-10-13T20:16:48.614Z,12.07
2022-10-13T20:18:55.631Z,13.60
2022-10-13T20:20:57.710Z,14.85
2022-10-13T20:22:59.304Z,14.70
2022-10-13T20:25:00.910Z,14.98
2022-10-13T20:27:02.961Z,11.55
2022-10-13T20:29:04.804Z,13.23
2022-10-13T20:31:06.505Z,9.35
2022-10-13T20:33:10.253Z,9.65
2022-10-13T20:37:13.402Z,12.63
2022-10-13T20:39:15.213Z,13.55
2022-10-13T20:41:24.924Z,12.48
2022-10-13T20:43:26.519Z,12.82
2022-10-13T20:45:28.215Z,10.88
2022-10-13T20:47:29.975Z,13.10
2022-10-13T20:49:31.633Z,11.77
2022-10-13T20:51:33.241Z,11.30
2022-10-13T20:53:36.264Z,10.57
2022-10-13T20:55:41.742Z,14.00
2022-10-13T20:57:43.842Z,9.90
2022-10-13T20:59:45.441Z,8.32
2022-10-13T21:01:47.023Z,14.02
2022-10-13T21:03:53.425Z,11.18
2022-10-13T21:05:55.419Z,12.20
2022-10-13T21:07:57.266Z,13.73
2022-10-13T21:09:58.925Z,14.88
2022-10-13T21:12:00.714Z,10.98
2022-10-13T21:14:06.858Z,9.65
2022-10-13T21:16:10.657Z,12.73
2022-10-13T21:18:12.490Z,14.93
2022-10-13T21:20:14.266Z,11.07
2022-10-13T21:22:15.866Z,12.30
2022-10-13T21:24:17.452Z,15.10
2022-10-13T21:26:21.901Z,14.90
2022-10-13T21:28:23.893Z,12.35
2022-10-13T21:30:25.643Z,15.52
2022-10-13T21:32:30.001Z,12.23
2022-10-13T21:34:31.698Z,13.10
2022-10-13T21:36:33.906Z,12.00
2022-10-13T21:38:35.990Z,10.82
2022-10-13T21:40:38.154Z,10.05
2022-10-13T21:42:39.967Z,10.77
2022-10-13T21:44:41.874Z,9.90
2022-10-13T21:46:43.536Z,13.48
2022-10-13T21:48:46.360Z,14.15
2022-10-13T21:50:48.103Z,11.35
2022-10-13T21:52:49.664Z,8.65
2022-10-13T21:54:51.553Z,9.25
2022-10-13T21:56:53.243Z,8.50
2022-10-13T21:58:56.061Z,10.70
2022-10-13T22:01:00.477Z,13.00
2022-10-13T22:03:02.216Z,11.55
2022-10-13T22:05:04.176Z,11.18
2022-10-13T22:07:06.214Z,10.00
2022-10-13T22:09:09.008Z,11.55
2022-10-13T22:11:12.633Z,9.00
2022-10-13T22:13:14.243Z,11.95
2022-10-13T22:15:16.019Z,9.57
2022-10-13T22:17:17.839Z,9.88
2022-10-13T22:19:22.641Z,10.90
2022-10-13T22:21:27.349Z,10.93
2022-10-13T22:23:29.469Z,9.50
2022-10-13T22:25:31.088Z,8.98
2022-10-13T22:27:32.724Z,12.77
2022-10-13T22:29:34.426Z,13.75
2022-10-13T22:31:36.222Z,10.35
2022-10-13T22:33:39.634Z,10.82
2022-10-13T22:35:41.478Z,9.15
2022-10-13T22:37:43.260Z,13.18
2022-10-13T22:39:44.989Z,7.03
2022-10-13T22:41:46.663Z,9.57
2022-10-13T22:43:56.113Z,10.45
2022-10-13T22:45:57.718Z,7.97
2022-10-13T22:47:59.379Z,8.82
2022-10-13T22:50:01.029Z,9.60
2022-10-13T22:52:02.608Z,6.18
2022-10-13T22:54:04.717Z,9.15
2022-10-13T22:56:12.072Z,12.00
2022-10-13T22:58:13.765Z,7.60
2022-10-13T23:00:16.141Z,7.07
2022-10-13T23:02:17.827Z,9.82
2022-10-13T23:04:19.461Z,9.13
2022-10-13T23:06:23.620Z,9.68
2022-10-13T23:08:25.785Z,5.60
2022-10-13T23:10:27.427Z,9.45
2022-10-13T23:12:29.088Z,5.53
2022-10-13T23:14:30.698Z,6.60
2022-10-13T23:16:32.384Z,6.30
2022-10-13T23:18:34.460Z,6.88
2022-10-13T23:20:39.983Z,9.38
2022-10-13T23:22:41.647Z,7.88
2022-10-13T23:24:43.265Z,7.75
2022-10-13T23:26:45.049Z,7.88
2022-10-13T23:28:46.730Z,7.30
2022-10-13T23:30:48.375Z,6.47
2022-10-13T23:32:50.035Z,7.32
2022-10-13T23:34:51.640Z,8.65
2022-10-13T23:36:53.329Z,6.10
2022-10-13T23:38:59.346Z,6.78
2022-10-13T23:41:08.911Z,6.43
2022-10-13T23:43:10.529Z,6.65
2022-10-13T23:45:12.158Z,6.57
2022-10-13T23:47:14.029Z,8.95
2022-10-13T23:49:15.736Z,7.20
2022-10-13T23:51:23.217Z,8.52
2022-10-13T23:53:25.084Z,6.30
2022-10-13T23:55:26.900Z,5.00
2022-10-13T23:57:29.994Z,7.90
2022-10-13T23:59:31.720Z,8.57
